sensor_id;sensor_type;location;lat;lon;timestamp;P1;durP1;ratioP1;P2;durP2;ratioP2
27013;SDS011;14556;52.222;4.510;2023-05-18T00:01:12;1.53;;;0.90;;
27013;SDS011;14556;52.222;4.510;2023-05-18T00:03:40;3.73;;;1.27;;
27013;SDS011;14556;52.222;4.510;2023-05-18T00:06:07;5.07;;;1.07;;
27013;SDS011;14556;52.222;4.510;2023-05-18T00:08:35;5.13;;;0.97;;
27013;SDS011;14556;52.222;4.510;2023-05-18T00:11:03;2.83;;;0.90;;
27013;SDS011;14556;52.222;4.510;2023-05-18T00:13:31;6.00;;;1.03;;
27013;SDS011;14556;52.222;4.510;2023-05-18T00:15:58;4.87;;;1.20;;
27013;SDS011;14556;52.222;4.510;2023-05-18T00:18:25;2.00;;;0.80;;
27013;SDS011;14556;52.222;4.510;2023-05-18T00:20:52;2.90;;;0.87;;
27013;SDS011;14556;52.222;4.510;2023-05-18T00:23:28;3.87;;;1.20;;
27013;SDS011;14556;52.222;4.510;2023-05-18T00:25:56;2.50;;;0.90;;
27013;SDS011;14556;52.222;4.510;2023-05-18T00:28:24;2.73;;;1.10;;
27013;SDS011;14556;52.222;4.510;2023-05-18T00:30:54;1.80;;;1.13;;
27013;SDS011;14556;52.222;4.510;2023-05-18T00:33:21;2.90;;;1.20;;
27013;SDS011;14556;52.222;4.510;2023-05-18T00:35:48;3.80;;;0.97;;
27013;SDS011;14556;52.222;4.510;2023-05-18T00:38:15;3.63;;;1.00;;
27013;SDS011;14556;52.222;4.510;2023-05-18T00:40:42;2.03;;;1.13;;
27013;SDS011;14556;52.222;4.510;2023-05-18T00:43:09;2.40;;;1.30;;
27013;SDS011;14556;52.222;4.510;2023-05-18T00:45:36;1.10;;;0.70;;
27013;SDS011;14556;52.222;4.510;2023-05-18T00:48:03;3.63;;;1.17;;
27013;SDS011;14556;52.222;4.510;2023-05-18T00:50:30;1.87;;;1.20;;
27013;SDS011;14556;52.222;4.510;2023-05-18T00:52:57;3.70;;;1.27;;
27013;SDS011;14556;52.222;4.510;2023-05-18T00:55:24;1.93;;;1.07;;
27013;SDS011;14556;52.222;4.510;2023-05-18T00:57:53;2.93;;;1.03;;
27013;SDS011;14556;52.222;4.510;2023-05-18T01:00:21;1.67;;;1.37;;
27013;SDS011;14556;52.222;4.510;2023-05-18T01:02:49;6.30;;;1.60;;
27013;SDS011;14556;52.222;4.510;2023-05-18T01:05:17;3.23;;;1.23;;
27013;SDS011;14556;52.222;4.510;2023-05-18T01:07:45;2.63;;;1.20;;
27013;SDS011;14556;52.222;4.510;2023-05-18T01:10:14;2.47;;;1.27;;
27013;SDS011;14556;52.222;4.510;2023-05-18T01:15:21;4.33;;;1.50;;
27013;SDS011;14556;52.222;4.510;2023-05-18T01:20:30;1.77;;;0.80;;
27013;SDS011;14556;52.222;4.510;2023-05-18T01:23:16;1.67;;;1.00;;
27013;SDS011;14556;52.222;4.510;2023-05-18T01:26:14;3.33;;;1.50;;
27013;SDS011;14556;52.222;4.510;2023-05-18T01:28:43;3.63;;;1.20;;
27013;SDS011;14556;52.222;4.510;2023-05-18T01:31:12;1.53;;;0.80;;
27013;SDS011;14556;52.222;4.510;2023-05-18T01:33:41;2.53;;;1.13;;
27013;SDS011;14556;52.222;4.510;2023-05-18T01:36:09;3.30;;;1.40;;
27013;SDS011;14556;52.222;4.510;2023-05-18T01:38:36;5.30;;;1.50;;
27013;SDS011;14556;52.222;4.510;2023-05-18T01:43:47;3.43;;;1.27;;
27013;SDS011;14556;52.222;4.510;2023-05-18T01:49:10;1.80;;;1.13;;
27013;SDS011;14556;52.222;4.510;2023-05-18T01:51:45;2.23;;;1.30;;
27013;SDS011;14556;52.222;4.510;2023-05-18T01:54:15;3.23;;;1.40;;
27013;SDS011;14556;52.222;4.510;2023-05-18T01:56:46;6.40;;;1.53;;
27013;SDS011;14556;52.222;4.510;2023-05-18T01:59:14;5.73;;;1.30;;
27013;SDS011;14556;52.222;4.510;2023-05-18T02:01:41;4.43;;;1.53;;
27013;SDS011;14556;52.222;4.510;2023-05-18T02:04:08;5.10;;;1.60;;
27013;SDS011;14556;52.222;4.510;2023-05-18T02:06:35;6.73;;;1.43;;
27013;SDS011;14556;52.222;4.510;2023-05-18T02:09:03;5.23;;;1.30;;
27013;SDS011;14556;52.222;4.510;2023-05-18T02:11:30;5.87;;;1.33;;
27013;SDS011;14556;52.222;4.510;2023-05-18T02:13:57;3.67;;;1.37;;
27013;SDS011;14556;52.222;4.510;2023-05-18T02:16:23;1.73;;;1.20;;
27013;SDS011;14556;52.222;4.510;2023-05-18T02:18:50;2.10;;;1.30;;
27013;SDS011;14556;52.222;4.510;2023-05-18T02:21:18;2.27;;;1.40;;
27013;SDS011;14556;52.222;4.510;2023-05-18T02:23:45;3.30;;;1.13;;
27013;SDS011;14556;52.222;4.510;2023-05-18T02:26:12;2.60;;;1.30;;
27013;SDS011;14556;52.222;4.510;2023-05-18T02:28:38;5.00;;;1.40;;
27013;SDS011;14556;52.222;4.510;2023-05-18T02:31:05;4.27;;;1.70;;
27013;SDS011;14556;52.222;4.510;2023-05-18T02:33:37;2.90;;;1.50;;
27013;SDS011;14556;52.222;4.510;2023-05-18T02:36:10;2.47;;;1.13;;
27013;SDS011;14556;52.222;4.510;2023-05-18T02:38:39;4.73;;;1.43;;
27013;SDS011;14556;52.222;4.510;2023-05-18T02:41:08;2.77;;;1.30;;
27013;SDS011;14556;52.222;4.510;2023-05-18T02:43:36;1.73;;;1.23;;
27013;SDS011;14556;52.222;4.510;2023-05-18T02:46:03;2.70;;;1.30;;
27013;SDS011;14556;52.222;4.510;2023-05-18T02:48:30;1.80;;;1.20;;
27013;SDS011;14556;52.222;4.510;2023-05-18T02:50:56;3.87;;;1.40;;
27013;SDS011;14556;52.222;4.510;2023-05-18T02:53:24;2.40;;;1.10;;
27013;SDS011;14556;52.222;4.510;2023-05-18T02:55:54;2.80;;;1.10;;
27013;SDS011;14556;52.222;4.510;2023-05-18T02:58:23;1.90;;;1.13;;
27013;SDS011;14556;52.222;4.510;2023-05-18T03:00:51;2.43;;;1.43;;
27013;SDS011;14556;52.222;4.510;2023-05-18T03:03:23;3.67;;;1.40;;
27013;SDS011;14556;52.222;4.510;2023-05-18T03:05:51;4.53;;;1.43;;
27013;SDS011;14556;52.222;4.510;2023-05-18T03:08:21;1.83;;;1.20;;
27013;SDS011;14556;52.222;4.510;2023-05-18T03:10:48;2.00;;;1.27;;
27013;SDS011;14556;52.222;4.510;2023-05-18T03:13:15;2.60;;;1.43;;
27013;SDS011;14556;52.222;4.510;2023-05-18T03:15:42;2.07;;;1.53;;
27013;SDS011;14556;52.222;4.510;2023-05-18T03:18:10;2.73;;;1.63;;
27013;SDS011;14556;52.222;4.510;2023-05-18T03:20:38;2.43;;;1.30;;
27013;SDS011;14556;52.222;4.510;2023-05-18T03:23:04;1.83;;;1.60;;
27013;SDS011;14556;52.222;4.510;2023-05-18T03:25:32;6.53;;;1.57;;
27013;SDS011;14556;52.222;4.510;2023-05-18T03:28:02;4.53;;;2.00;;
27013;SDS011;14556;52.222;4.510;2023-05-18T03:30:33;2.03;;;1.40;;
27013;SDS011;14556;52.222;4.510;2023-05-18T03:33:01;4.27;;;1.90;;
27013;SDS011;14556;52.222;4.510;2023-05-18T03:35:29;3.87;;;1.47;;
27013;SDS011;14556;52.222;4.510;2023-05-18T03:37:56;3.20;;;1.33;;
27013;SDS011;14556;52.222;4.510;2023-05-18T03:40:22;4.90;;;1.80;;
27013;SDS011;14556;52.222;4.510;2023-05-18T03:42:50;3.50;;;1.10;;
27013;SDS011;14556;52.222;4.510;2023-05-18T03:45:16;1.50;;;1.27;;
27013;SDS011;14556;52.222;4.510;2023-05-18T03:47:43;3.27;;;1.30;;
27013;SDS011;14556;52.222;4.510;2023-05-18T03:50:09;2.63;;;1.30;;
27013;SDS011;14556;52.222;4.510;2023-05-18T03:52:36;2.73;;;1.30;;
27013;SDS011;14556;52.222;4.510;2023-05-18T03:55:04;3.40;;;1.83;;
27013;SDS011;14556;52.222;4.510;2023-05-18T03:57:31;2.17;;;1.20;;
27013;SDS011;14556;52.222;4.510;2023-05-18T03:59:58;4.77;;;1.57;;
27013;SDS011;14556;52.222;4.510;2023-05-18T04:02:25;2.67;;;1.60;;
27013;SDS011;14556;52.222;4.510;2023-05-18T04:04:51;4.53;;;1.47;;
27013;SDS011;14556;52.222;4.510;2023-05-18T04:07:19;3.13;;;1.27;;
27013;SDS011;14556;52.222;4.510;2023-05-18T04:09:50;5.40;;;1.20;;
27013;SDS011;14556;52.222;4.510;2023-05-18T04:12:17;3.30;;;1.40;;
27013;SDS011;14556;52.222;4.510;2023-05-18T04:14:44;3.27;;;1.30;;
27013;SDS011;14556;52.222;4.510;2023-05-18T04:17:16;1.90;;;1.10;;
27013;SDS011;14556;52.222;4.510;2023-05-18T04:19:43;2.57;;;1.33;;
27013;SDS011;14556;52.222;4.510;2023-05-18T04:22:10;1.60;;;1.20;;
27013;SDS011;14556;52.222;4.510;2023-05-18T04:24:36;2.17;;;1.27;;
27013;SDS011;14556;52.222;4.510;2023-05-18T04:27:03;4.10;;;1.53;;
27013;SDS011;14556;52.222;4.510;2023-05-18T04:29:30;1.10;;;0.93;;
27013;SDS011;14556;52.222;4.510;2023-05-18T04:31:56;2.40;;;1.20;;
27013;SDS011;14556;52.222;4.510;2023-05-18T04:34:27;1.53;;;1.10;;
27013;SDS011;14556;52.222;4.510;2023-05-18T04:36:53;2.47;;;1.10;;
27013;SDS011;14556;52.222;4.510;2023-05-18T04:39:21;4.73;;;1.33;;
27013;SDS011;14556;52.222;4.510;2023-05-18T04:41:50;2.53;;;1.30;;
27013;SDS011;14556;52.222;4.510;2023-05-18T04:44:26;4.23;;;1.33;;
27013;SDS011;14556;52.222;4.510;2023-05-18T04:46:53;3.27;;;1.27;;
27013;SDS011;14556;52.222;4.510;2023-05-18T04:49:20;3.40;;;1.30;;
27013;SDS011;14556;52.222;4.510;2023-05-18T04:51:51;4.03;;;1.20;;
27013;SDS011;14556;52.222;4.510;2023-05-18T04:54:26;2.13;;;1.10;;
27013;SDS011;14556;52.222;4.510;2023-05-18T04:56:56;2.37;;;1.13;;
27013;SDS011;14556;52.222;4.510;2023-05-18T04:59:23;4.90;;;1.20;;
27013;SDS011;14556;52.222;4.510;2023-05-18T05:01:51;3.13;;;1.20;;
27013;SDS011;14556;52.222;4.510;2023-05-18T05:04:19;1.87;;;1.20;;
27013;SDS011;14556;52.222;4.510;2023-05-18T05:06:46;4.50;;;1.30;;
27013;SDS011;14556;52.222;4.510;2023-05-18T05:09:14;2.40;;;1.10;;
27013;SDS011;14556;52.222;4.510;2023-05-18T05:11:40;2.23;;;0.90;;
27013;SDS011;14556;52.222;4.510;2023-05-18T05:14:07;3.93;;;1.20;;
27013;SDS011;14556;52.222;4.510;2023-05-18T05:16:34;3.43;;;1.00;;
27013;SDS011;14556;52.222;4.510;2023-05-18T05:19:01;2.03;;;1.10;;
27013;SDS011;14556;52.222;4.510;2023-05-18T05:21:28;2.13;;;1.43;;
27013;SDS011;14556;52.222;4.510;2023-05-18T05:23:54;1.90;;;1.40;;
27013;SDS011;14556;52.222;4.510;2023-05-18T05:26:21;1.90;;;1.30;;
27013;SDS011;14556;52.222;4.510;2023-05-18T05:28:48;2.67;;;1.50;;
27013;SDS011;14556;52.222;4.510;2023-05-18T05:31:14;3.00;;;1.27;;
27013;SDS011;14556;52.222;4.510;2023-05-18T05:33:41;5.67;;;1.30;;
27013;SDS011;14556;52.222;4.510;2023-05-18T05:36:08;1.50;;;1.10;;
27013;SDS011;14556;52.222;4.510;2023-05-18T05:38:35;1.60;;;1.10;;
27013;SDS011;14556;52.222;4.510;2023-05-18T05:41:02;5.60;;;1.13;;
27013;SDS011;14556;52.222;4.510;2023-05-18T05:43:29;1.17;;;1.07;;
27013;SDS011;14556;52.222;4.510;2023-05-18T05:45:55;1.27;;;1.10;;
27013;SDS011;14556;52.222;4.510;2023-05-18T05:48:22;3.27;;;1.17;;
27013;SDS011;14556;52.222;4.510;2023-05-18T05:50:48;2.83;;;1.00;;
27013;SDS011;14556;52.222;4.510;2023-05-18T05:53:15;1.27;;;0.90;;
27013;SDS011;14556;52.222;4.510;2023-05-18T05:55:44;4.13;;;1.47;;
27013;SDS011;14556;52.222;4.510;2023-05-18T05:58:11;3.07;;;1.20;;
27013;SDS011;14556;52.222;4.510;2023-05-18T06:00:39;3.67;;;0.90;;
27013;SDS011;14556;52.222;4.510;2023-05-18T06:03:05;1.70;;;0.70;;
27013;SDS011;14556;52.222;4.510;2023-05-18T06:05:33;3.83;;;1.17;;
27013;SDS011;14556;52.222;4.510;2023-05-18T06:07:59;1.93;;;1.07;;
27013;SDS011;14556;52.222;4.510;2023-05-18T06:10:26;3.10;;;0.90;;
27013;SDS011;14556;52.222;4.510;2023-05-18T06:12:53;4.23;;;1.00;;
27013;SDS011;14556;52.222;4.510;2023-05-18T06:15:19;2.73;;;1.70;;
27013;SDS011;14556;52.222;4.510;2023-05-18T06:17:46;2.70;;;1.40;;
27013;SDS011;14556;52.222;4.510;2023-05-18T06:20:13;2.27;;;1.30;;
27013;SDS011;14556;52.222;4.510;2023-05-18T06:22:40;2.13;;;1.00;;
27013;SDS011;14556;52.222;4.510;2023-05-18T06:25:07;6.23;;;1.20;;
27013;SDS011;14556;52.222;4.510;2023-05-18T06:27:35;4.80;;;1.20;;
27013;SDS011;14556;52.222;4.510;2023-05-18T06:30:02;3.67;;;1.20;;
27013;SDS011;14556;52.222;4.510;2023-05-18T06:32:30;2.00;;;0.83;;
27013;SDS011;14556;52.222;4.510;2023-05-18T06:34:58;1.50;;;1.03;;
27013;SDS011;14556;52.222;4.510;2023-05-18T06:37:25;4.20;;;1.20;;
27013;SDS011;14556;52.222;4.510;2023-05-18T06:39:52;1.30;;;1.00;;
27013;SDS011;14556;52.222;4.510;2023-05-18T06:42:18;4.00;;;0.90;;
27013;SDS011;14556;52.222;4.510;2023-05-18T06:44:45;2.70;;;1.33;;
27013;SDS011;14556;52.222;4.510;2023-05-18T06:47:11;1.73;;;1.07;;
27013;SDS011;14556;52.222;4.510;2023-05-18T06:49:38;5.83;;;1.10;;
27013;SDS011;14556;52.222;4.510;2023-05-18T06:52:05;3.60;;;1.20;;
27013;SDS011;14556;52.222;4.510;2023-05-18T06:54:33;5.00;;;1.20;;
27013;SDS011;14556;52.222;4.510;2023-05-18T06:56:59;2.73;;;0.80;;
27013;SDS011;14556;52.222;4.510;2023-05-18T06:59:26;4.13;;;1.10;;
27013;SDS011;14556;52.222;4.510;2023-05-18T07:01:52;3.93;;;0.80;;
27013;SDS011;14556;52.222;4.510;2023-05-18T07:04:19;1.33;;;0.90;;
27013;SDS011;14556;52.222;4.510;2023-05-18T07:06:45;5.93;;;1.53;;
27013;SDS011;14556;52.222;4.510;2023-05-18T07:09:12;1.47;;;0.83;;
27013;SDS011;14556;52.222;4.510;2023-05-18T07:11:38;2.70;;;1.00;;
27013;SDS011;14556;52.222;4.510;2023-05-18T07:14:08;4.20;;;1.33;;
27013;SDS011;14556;52.222;4.510;2023-05-18T07:16:34;1.43;;;0.90;;
27013;SDS011;14556;52.222;4.510;2023-05-18T07:19:01;3.97;;;0.90;;
27013;SDS011;14556;52.222;4.510;2023-05-18T07:21:30;1.70;;;1.00;;
27013;SDS011;14556;52.222;4.510;2023-05-18T07:23:56;3.70;;;0.87;;
27013;SDS011;14556;52.222;4.510;2023-05-18T07:26:23;4.63;;;1.23;;
27013;SDS011;14556;52.222;4.510;2023-05-18T07:28:49;4.20;;;1.07;;
27013;SDS011;14556;52.222;4.510;2023-05-18T07:31:16;1.40;;;1.03;;
27013;SDS011;14556;52.222;4.510;2023-05-18T07:33:46;3.37;;;1.27;;
27013;SDS011;14556;52.222;4.510;2023-05-18T07:36:15;4.73;;;1.40;;
27013;SDS011;14556;52.222;4.510;2023-05-18T07:38:42;2.30;;;1.10;;
27013;SDS011;14556;52.222;4.510;2023-05-18T07:41:09;3.17;;;1.27;;
27013;SDS011;14556;52.222;4.510;2023-05-18T07:43:35;1.73;;;1.10;;
27013;SDS011;14556;52.222;4.510;2023-05-18T07:46:02;7.60;;;2.00;;
27013;SDS011;14556;52.222;4.510;2023-05-18T07:48:29;2.57;;;1.10;;
27013;SDS011;14556;52.222;4.510;2023-05-18T07:50:55;3.10;;;1.17;;
27013;SDS011;14556;52.222;4.510;2023-05-18T07:53:22;3.80;;;1.50;;
27013;SDS011;14556;52.222;4.510;2023-05-18T07:55:48;1.90;;;1.00;;
27013;SDS011;14556;52.222;4.510;2023-05-18T07:58:15;7.27;;;2.17;;
27013;SDS011;14556;52.222;4.510;2023-05-18T08:00:42;2.00;;;1.50;;
27013;SDS011;14556;52.222;4.510;2023-05-18T08:03:09;1.50;;;1.00;;
27013;SDS011;14556;52.222;4.510;2023-05-18T08:05:36;2.60;;;0.87;;
27013;SDS011;14556;52.222;4.510;2023-05-18T08:08:02;3.00;;;1.07;;
27013;SDS011;14556;52.222;4.510;2023-05-18T08:10:32;3.57;;;1.40;;
27013;SDS011;14556;52.222;4.510;2023-05-18T08:12:58;2.53;;;1.20;;
27013;SDS011;14556;52.222;4.510;2023-05-18T08:15:25;3.57;;;1.03;;
27013;SDS011;14556;52.222;4.510;2023-05-18T08:17:51;1.60;;;0.97;;
27013;SDS011;14556;52.222;4.510;2023-05-18T08:20:21;3.97;;;1.13;;
27013;SDS011;14556;52.222;4.510;2023-05-18T08:22:48;2.30;;;1.00;;
27013;SDS011;14556;52.222;4.510;2023-05-18T08:25:15;5.63;;;1.30;;
27013;SDS011;14556;52.222;4.510;2023-05-18T08:27:41;4.10;;;1.43;;
27013;SDS011;14556;52.222;4.510;2023-05-18T08:30:08;4.40;;;1.53;;
27013;SDS011;14556;52.222;4.510;2023-05-18T08:32:35;2.67;;;1.13;;
27013;SDS011;14556;52.222;4.510;2023-05-18T08:35:03;4.00;;;1.20;;
27013;SDS011;14556;52.222;4.510;2023-05-18T08:37:30;2.83;;;1.43;;
27013;SDS011;14556;52.222;4.510;2023-05-18T08:39:56;4.83;;;1.63;;
27013;SDS011;14556;52.222;4.510;2023-05-18T08:42:28;2.13;;;1.17;;
27013;SDS011;14556;52.222;4.510;2023-05-18T08:45:17;3.37;;;0.90;;
27013;SDS011;14556;52.222;4.510;2023-05-18T08:47:49;2.10;;;1.40;;
27013;SDS011;14556;52.222;4.510;2023-05-18T08:50:17;2.47;;;1.10;;
27013;SDS011;14556;52.222;4.510;2023-05-18T08:52:50;3.13;;;1.50;;
27013;SDS011;14556;52.222;4.510;2023-05-18T08:55:20;6.27;;;1.60;;
27013;SDS011;14556;52.222;4.510;2023-05-18T08:57:49;3.17;;;1.10;;
27013;SDS011;14556;52.222;4.510;2023-05-18T09:00:21;4.40;;;1.40;;
27013;SDS011;14556;52.222;4.510;2023-05-18T09:02:50;4.43;;;1.67;;
27013;SDS011;14556;52.222;4.510;2023-05-18T09:05:17;4.57;;;1.43;;
27013;SDS011;14556;52.222;4.510;2023-05-18T09:07:46;2.80;;;1.17;;
27013;SDS011;14556;52.222;4.510;2023-05-18T09:10:14;4.30;;;1.90;;
27013;SDS011;14556;52.222;4.510;2023-05-18T09:12:42;4.30;;;1.63;;
27013;SDS011;14556;52.222;4.510;2023-05-18T09:15:11;3.40;;;1.80;;
27013;SDS011;14556;52.222;4.510;2023-05-18T09:17:39;4.17;;;1.27;;
27013;SDS011;14556;52.222;4.510;2023-05-18T09:20:06;4.90;;;1.70;;
27013;SDS011;14556;52.222;4.510;2023-05-18T09:22:33;6.17;;;1.37;;
27013;SDS011;14556;52.222;4.510;2023-05-18T09:25:08;3.77;;;1.73;;
27013;SDS011;14556;52.222;4.510;2023-05-18T09:27:36;5.03;;;1.50;;
27013;SDS011;14556;52.222;4.510;2023-05-18T09:30:03;6.97;;;1.50;;
27013;SDS011;14556;52.222;4.510;2023-05-18T09:32:33;8.33;;;1.93;;
27013;SDS011;14556;52.222;4.510;2023-05-18T09:35:05;2.57;;;1.33;;
27013;SDS011;14556;52.222;4.510;2023-05-18T09:37:33;3.53;;;1.70;;
27013;SDS011;14556;52.222;4.510;2023-05-18T09:40:00;2.90;;;1.37;;
27013;SDS011;14556;52.222;4.510;2023-05-18T09:42:40;2.23;;;1.10;;
27013;SDS011;14556;52.222;4.510;2023-05-18T09:47:39;3.87;;;1.60;;
27013;SDS011;14556;52.222;4.510;2023-05-18T09:50:06;4.03;;;1.67;;
27013;SDS011;14556;52.222;4.510;2023-05-18T09:52:40;2.60;;;1.40;;
27013;SDS011;14556;52.222;4.510;2023-05-18T09:55:16;2.60;;;1.60;;
27013;SDS011;14556;52.222;4.510;2023-05-18T09:57:45;3.17;;;1.40;;
27013;SDS011;14556;52.222;4.510;2023-05-18T10:00:13;5.83;;;1.60;;
27013;SDS011;14556;52.222;4.510;2023-05-18T10:02:42;4.97;;;1.53;;
27013;SDS011;14556;52.222;4.510;2023-05-18T10:05:17;4.03;;;1.47;;
27013;SDS011;14556;52.222;4.510;2023-05-18T10:07:45;2.07;;;1.40;;
27013;SDS011;14556;52.222;4.510;2023-05-18T10:10:12;3.50;;;2.00;;
27013;SDS011;14556;52.222;4.510;2023-05-18T10:12:42;1.93;;;1.30;;
27013;SDS011;14556;52.222;4.510;2023-05-18T10:15:09;4.10;;;1.30;;
27013;SDS011;14556;52.222;4.510;2023-05-18T10:17:40;6.13;;;1.30;;
27013;SDS011;14556;52.222;4.510;2023-05-18T10:20:08;5.37;;;1.63;;
27013;SDS011;14556;52.222;4.510;2023-05-18T10:22:36;5.90;;;1.57;;
27013;SDS011;14556;52.222;4.510;2023-05-18T10:25:03;5.10;;;1.60;;
27013;SDS011;14556;52.222;4.510;2023-05-18T10:27:33;1.83;;;1.40;;
27013;SDS011;14556;52.222;4.510;2023-05-18T10:30:01;6.17;;;1.53;;
27013;SDS011;14556;52.222;4.510;2023-05-18T10:32:34;1.87;;;1.60;;
27013;SDS011;14556;52.222;4.510;2023-05-18T10:35:02;6.93;;;2.10;;
27013;SDS011;14556;52.222;4.510;2023-05-18T10:37:30;4.57;;;1.60;;
27013;SDS011;14556;52.222;4.510;2023-05-18T10:40:00;4.20;;;1.67;;
27013;SDS011;14556;52.222;4.510;2023-05-18T10:42:29;3.50;;;1.27;;
27013;SDS011;14556;52.222;4.510;2023-05-18T10:44:56;6.17;;;1.67;;
27013;SDS011;14556;52.222;4.510;2023-05-18T10:47:23;4.03;;;1.33;;
27013;SDS011;14556;52.222;4.510;2023-05-18T10:49:53;6.47;;;1.53;;
27013;SDS011;14556;52.222;4.510;2023-05-18T10:52:21;2.93;;;1.63;;
27013;SDS011;14556;52.222;4.510;2023-05-18T10:54:48;2.03;;;1.50;;
27013;SDS011;14556;52.222;4.510;2023-05-18T10:57:17;2.67;;;1.57;;
27013;SDS011;14556;52.222;4.510;2023-05-18T10:59:45;5.70;;;1.60;;
27013;SDS011;14556;52.222;4.510;2023-05-18T11:02:14;3.07;;;1.60;;
27013;SDS011;14556;52.222;4.510;2023-05-18T11:04:44;4.80;;;1.63;;
27013;SDS011;14556;52.222;4.510;2023-05-18T11:07:11;7.20;;;1.63;;
27013;SDS011;14556;52.222;4.510;2023-05-18T11:09:42;4.67;;;1.87;;
27013;SDS011;14556;52.222;4.510;2023-05-18T11:12:10;3.20;;;1.80;;
27013;SDS011;14556;52.222;4.510;2023-05-18T11:14:51;6.43;;;1.77;;
27013;SDS011;14556;52.222;4.510;2023-05-18T11:17:27;3.80;;;1.60;;
27013;SDS011;14556;52.222;4.510;2023-05-18T11:30:27;3.47;;;1.70;;
27013;SDS011;14556;52.222;4.510;2023-05-18T11:35:56;4.17;;;2.00;;
27013;SDS011;14556;52.222;4.510;2023-05-18T11:46:39;4.50;;;2.03;;
27013;SDS011;14556;52.222;4.510;2023-05-18T11:49:16;5.80;;;1.90;;
27013;SDS011;14556;52.222;4.510;2023-05-18T11:51:54;8.23;;;2.33;;
27013;SDS011;14556;52.222;4.510;2023-05-18T11:54:24;3.10;;;2.10;;
27013;SDS011;14556;52.222;4.510;2023-05-18T11:56:51;7.13;;;1.67;;
27013;SDS011;14556;52.222;4.510;2023-05-18T11:59:31;2.70;;;1.83;;
27013;SDS011;14556;52.222;4.510;2023-05-18T12:02:00;3.67;;;2.10;;
27013;SDS011;14556;52.222;4.510;2023-05-18T12:04:29;3.17;;;1.93;;
27013;SDS011;14556;52.222;4.510;2023-05-18T12:06:58;5.33;;;2.30;;
27013;SDS011;14556;52.222;4.510;2023-05-18T12:09:25;8.67;;;2.60;;
27013;SDS011;14556;52.222;4.510;2023-05-18T12:11:53;6.67;;;2.27;;
27013;SDS011;14556;52.222;4.510;2023-05-18T12:14:20;3.67;;;2.20;;
27013;SDS011;14556;52.222;4.510;2023-05-18T12:16:48;3.90;;;2.23;;
27013;SDS011;14556;52.222;4.510;2023-05-18T12:19:16;3.43;;;1.83;;
27013;SDS011;14556;52.222;4.510;2023-05-18T12:21:44;2.67;;;1.73;;
27013;SDS011;14556;52.222;4.510;2023-05-18T12:24:12;4.97;;;2.37;;
27013;SDS011;14556;52.222;4.510;2023-05-18T12:26:38;4.93;;;1.80;;
27013;SDS011;14556;52.222;4.510;2023-05-18T12:29:06;4.00;;;1.93;;
27013;SDS011;14556;52.222;4.510;2023-05-18T12:31:33;3.87;;;2.00;;
27013;SDS011;14556;52.222;4.510;2023-05-18T12:34:00;4.87;;;1.90;;
27013;SDS011;14556;52.222;4.510;2023-05-18T12:36:27;4.33;;;2.10;;
27013;SDS011;14556;52.222;4.510;2023-05-18T12:38:54;3.67;;;1.77;;
27013;SDS011;14556;52.222;4.510;2023-05-18T12:41:21;3.93;;;1.87;;
27013;SDS011;14556;52.222;4.510;2023-05-18T12:43:52;6.20;;;2.33;;
27013;SDS011;14556;52.222;4.510;2023-05-18T12:46:23;4.10;;;1.97;;
27013;SDS011;14556;52.222;4.510;2023-05-18T12:48:56;4.00;;;1.50;;
27013;SDS011;14556;52.222;4.510;2023-05-18T12:51:24;3.27;;;1.77;;
27013;SDS011;14556;52.222;4.510;2023-05-18T12:53:56;4.73;;;1.77;;
27013;SDS011;14556;52.222;4.510;2023-05-18T12:56:23;6.20;;;1.90;;
27013;SDS011;14556;52.222;4.510;2023-05-18T12:58:55;3.70;;;1.87;;
27013;SDS011;14556;52.222;4.510;2023-05-18T13:01:23;4.03;;;2.17;;
27013;SDS011;14556;52.222;4.510;2023-05-18T13:03:54;2.23;;;1.30;;
27013;SDS011;14556;52.222;4.510;2023-05-18T13:06:22;5.93;;;1.93;;
27013;SDS011;14556;52.222;4.510;2023-05-18T13:08:53;4.47;;;1.70;;
27013;SDS011;14556;52.222;4.510;2023-05-18T13:11:24;2.13;;;1.60;;
27013;SDS011;14556;52.222;4.510;2023-05-18T13:14:01;2.70;;;1.63;;
27013;SDS011;14556;52.222;4.510;2023-05-18T13:16:29;3.53;;;1.67;;
27013;SDS011;14556;52.222;4.510;2023-05-18T13:18:59;5.63;;;2.00;;
27013;SDS011;14556;52.222;4.510;2023-05-18T13:21:30;4.23;;;1.70;;
27013;SDS011;14556;52.222;4.510;2023-05-18T13:23:57;3.20;;;1.70;;
27013;SDS011;14556;52.222;4.510;2023-05-18T13:26:24;8.13;;;1.90;;
27013;SDS011;14556;52.222;4.510;2023-05-18T13:28:51;4.20;;;1.90;;
27013;SDS011;14556;52.222;4.510;2023-05-18T13:31:20;3.97;;;1.87;;
27013;SDS011;14556;52.222;4.510;2023-05-18T13:33:47;4.33;;;1.90;;
27013;SDS011;14556;52.222;4.510;2023-05-18T13:36:15;8.43;;;1.83;;
27013;SDS011;14556;52.222;4.510;2023-05-18T13:38:43;5.43;;;1.93;;
27013;SDS011;14556;52.222;4.510;2023-05-18T13:41:10;3.40;;;2.10;;
27013;SDS011;14556;52.222;4.510;2023-05-18T13:43:40;6.73;;;1.77;;
27013;SDS011;14556;52.222;4.510;2023-05-18T13:46:07;9.53;;;1.67;;
27013;SDS011;14556;52.222;4.510;2023-05-18T13:48:34;5.70;;;1.60;;
27013;SDS011;14556;52.222;4.510;2023-05-18T13:51:01;5.53;;;1.63;;
27013;SDS011;14556;52.222;4.510;2023-05-18T13:53:27;5.27;;;2.10;;
27013;SDS011;14556;52.222;4.510;2023-05-18T13:55:54;6.17;;;2.30;;
27013;SDS011;14556;52.222;4.510;2023-05-18T13:58:20;5.37;;;2.20;;
27013;SDS011;14556;52.222;4.510;2023-05-18T14:00:48;5.13;;;2.13;;
27013;SDS011;14556;52.222;4.510;2023-05-18T14:03:15;3.00;;;1.90;;
27013;SDS011;14556;52.222;4.510;2023-05-18T14:05:45;7.00;;;2.00;;
27013;SDS011;14556;52.222;4.510;2023-05-18T14:08:11;4.27;;;1.97;;
27013;SDS011;14556;52.222;4.510;2023-05-18T14:10:38;6.57;;;2.17;;
27013;SDS011;14556;52.222;4.510;2023-05-18T14:13:04;5.03;;;1.90;;
27013;SDS011;14556;52.222;4.510;2023-05-18T14:15:32;3.83;;;2.27;;
27013;SDS011;14556;52.222;4.510;2023-05-18T14:17:58;3.53;;;2.07;;
27013;SDS011;14556;52.222;4.510;2023-05-18T14:20:25;4.83;;;1.93;;
27013;SDS011;14556;52.222;4.510;2023-05-18T14:22:51;3.20;;;1.97;;
27013;SDS011;14556;52.222;4.510;2023-05-18T14:25:18;4.80;;;2.07;;
27013;SDS011;14556;52.222;4.510;2023-05-18T14:27:44;4.37;;;1.93;;
27013;SDS011;14556;52.222;4.510;2023-05-18T14:30:11;1.87;;;1.67;;
27013;SDS011;14556;52.222;4.510;2023-05-18T14:32:39;4.50;;;1.80;;
27013;SDS011;14556;52.222;4.510;2023-05-18T14:35:06;5.27;;;1.73;;
27013;SDS011;14556;52.222;4.510;2023-05-18T14:37:33;2.87;;;1.93;;
27013;SDS011;14556;52.222;4.510;2023-05-18T14:39:59;5.27;;;2.10;;
27013;SDS011;14556;52.222;4.510;2023-05-18T14:42:26;3.00;;;1.90;;
27013;SDS011;14556;52.222;4.510;2023-05-18T14:44:52;4.70;;;2.07;;
27013;SDS011;14556;52.222;4.510;2023-05-18T14:47:19;4.17;;;2.20;;
27013;SDS011;14556;52.222;4.510;2023-05-18T14:49:46;6.60;;;2.27;;
27013;SDS011;14556;52.222;4.510;2023-05-18T14:52:12;5.20;;;2.17;;
27013;SDS011;14556;52.222;4.510;2023-05-18T14:54:39;3.73;;;1.97;;
27013;SDS011;14556;52.222;4.510;2023-05-18T14:57:08;3.97;;;2.27;;
27013;SDS011;14556;52.222;4.510;2023-05-18T14:59:35;5.33;;;2.10;;
27013;SDS011;14556;52.222;4.510;2023-05-18T15:02:01;3.93;;;2.10;;
27013;SDS011;14556;52.222;4.510;2023-05-18T15:04:28;4.70;;;2.00;;
27013;SDS011;14556;52.222;4.510;2023-05-18T15:06:54;4.63;;;2.30;;
27013;SDS011;14556;52.222;4.510;2023-05-18T15:09:21;5.37;;;2.70;;
27013;SDS011;14556;52.222;4.510;2023-05-18T15:11:51;3.33;;;2.13;;
27013;SDS011;14556;52.222;4.510;2023-05-18T15:14:18;3.53;;;1.90;;
27013;SDS011;14556;52.222;4.510;2023-05-18T15:16:44;3.03;;;2.10;;
27013;SDS011;14556;52.222;4.510;2023-05-18T15:19:11;4.27;;;2.20;;
27013;SDS011;14556;52.222;4.510;2023-05-18T15:21:38;2.70;;;2.30;;
27013;SDS011;14556;52.222;4.510;2023-05-18T15:24:05;3.17;;;2.07;;
27013;SDS011;14556;52.222;4.510;2023-05-18T15:26:32;6.93;;;2.20;;
27013;SDS011;14556;52.222;4.510;2023-05-18T15:28:58;4.87;;;2.47;;